Time;durP1;ratioP1;P1;durP2;ratioP2;P2;SDS_P1;SDS_P2;PMS_P1;PMS_P2;Temp;Humidity;BMP_temperature;BMP_pressure;BME280_temperature;BME280_humidity;BME280_pressure;Samples;Min_cycle;Max_cycle;Signal;HPM_P1;HPM_P2
2023/09/27 00:01:58;;;;;;;9.50;6.00;;;;;;;11.92;86.28;98169.48;110127;1243;69838;-61
2023/09/27 00:04:34;;;;;;;9.80;6.20;;;;;;;11.93;84.66;98168.02;110120;1248;59743;-61
2023/09/27 00:07:04;;;;;;;9.10;6.10;;;;;;;11.94;87.04;98169.39;110163;1241;59669;-61
2023/09/27 00:09:34;;;;;;;;;;;;;;;11.94;84.60;98166.89;110200;1244;71900;-61
2023/09/27 00:12:05;;;;;;;8.30;5.80;;;;;;;11.95;88.99;98165.80;110153;1246;69839;-61
2023/09/27 00:14:37;;;;;;;8.60;5.20;;;;;;;11.97;88.81;98169.69;110145;1241;68352;-60
2023/09/27 00:17:08;;;;;;;8.30;6.80;;;;;;;11.97;85.39;98162.52;110143;1244;59765;-61
2023/09/27 00:19:38;;;;;;;;;;;;;;;11.98;89.12;98159.86;110148;1243;59757;-61
2023/09/27 00:22:10;;;;;;;8.90;6.20;;;;;;;11.97;86.51;98159.55;110143;1241;70657;-61
2023/09/27 00:24:39;;;;;;;8.50;6.50;;;;;;;11.97;85.99;98159.55;110173;1244;69269;-60
2023/09/27 00:27:13;;;;;;;8.70;6.30;;;;;;;11.97;89.96;98156.22;110148;1244;69254;-61
2023/09/27 00:29:45;;;;;;;7.60;5.10;;;;;;;11.96;90.77;98150.88;110126;1242;59739;-61
2023/09/27 00:32:17;;;;;;;7.10;5.30;;;;;;;11.94;91.97;98152.58;110129;1243;59633;-61
2023/09/27 00:34:47;;;;;;;7.50;5.60;;;;;;;11.92;87.48;98152.73;110146;1243;71292;-61
2023/09/27 00:37:17;;;;;;;6.10;4.60;;;;;;;11.90;88.08;98156.52;110146;1241;70083;-61
2023/09/27 00:39:50;;;;;;;8.30;6.40;;;;;;;11.87;86.77;98152.55;110131;1243;69261;-61
2023/09/27 00:42:21;;;;;;;6.40;5.10;;;;;;;11.84;88.47;98154.66;110139;1244;59745;-61
2023/09/27 00:44:53;;;;;;;7.70;4.80;;;;;;;11.83;88.18;98153.16;110120;1244;59744;-61
2023/09/27 00:47:24;;;;;;;6.00;4.90;;;;;;;11.81;90.49;98146.98;110152;1244;71219;-61
2023/09/27 00:49:55;;;;;;;7.00;5.20;;;;;;;11.79;88.12;98147.28;110165;1241;69667;-61
2023/09/27 00:52:27;;;;;;;9.80;7.10;;;;;;;11.77;89.96;98146.72;110114;1245;69221;-61
2023/09/27 00:54:59;;;;;;;9.90;6.10;;;;;;;11.78;87.81;98147.90;110104;1244;60098;-61
2023/09/27 00:57:31;;;;;;;7.90;5.90;;;;;;;11.77;86.67;98147.43;110140;1243;59665;-61
2023/09/27 01:00:10;;;;;;;10.20;6.60;;;;;;;11.74;89.54;98146.58;110163;1241;70730;-61
2023/09/27 01:02:42;;;;;;;8.80;5.60;;;;;;;11.72;86.62;98145.95;110138;1244;69146;-61
2023/09/27 01:05:18;;;;;;;8.30;5.60;;;;;;;11.73;84.47;98146.80;110089;1241;68362;-61
2023/09/27 01:07:52;;;;;;;7.80;6.80;;;;;;;11.71;90.49;98147.94;110162;1241;59747;-61
2023/09/27 01:10:26;;;;;;;7.40;5.60;;;;;;;11.69;88.92;98150.38;110169;1242;59644;-61
2023/09/27 01:13:00;;;;;;;7.70;5.10;;;;;;;11.65;92.53;98151.52;110217;1241;71545;-61
2023/09/27 01:15:33;;;;;;;8.40;7.10;;;;;;;11.60;87.19;98148.69;110163;1242;69260;-61
2023/09/27 01:18:07;;;;;;;7.20;5.60;;;;;;;11.56;84.96;98148.78;110150;1241;68533;-61
2023/09/27 01:20:44;;;;;;;9.70;5.90;;;;;;;11.51;91.64;98144.40;110199;1242;59667;-60
2023/09/27 01:23:19;;;;;;;8.60;5.50;;;;;;;11.46;90.92;98148.91;110184;1243;59669;-61
2023/09/27 01:26:02;;;;;;;8.40;5.90;;;;;;;11.41;87.36;98149.40;110203;1243;71257;-61
2023/09/27 01:28:40;;;;;;;8.80;6.20;;;;;;;11.37;94.91;98153.14;110193;1242;69270;-62
2023/09/27 01:31:18;;;;;;;12.00;8.10;;;;;;;11.32;92.78;98148.42;110240;1242;69278;-60
2023/09/27 01:33:53;;;;;;;8.00;6.10;;;;;;;11.29;90.52;98148.27;110173;1241;59676;-61
2023/09/27 01:36:27;;;;;;;9.00;7.40;;;;;;;11.25;92.34;98143.82;110193;1243;59744;-61
2023/09/27 01:39:00;;;;;;;7.80;6.40;;;;;;;11.20;96.89;98147.10;110189;1242;71505;-61
2023/09/27 01:41:32;;;;;;;7.90;6.50;;;;;;;11.16;90.56;98145.03;110145;1244;69203;-61
2023/09/27 01:44:05;;;;;;;10.70;7.80;;;;;;;11.14;94.73;98142.55;110167;1242;69410;-61
2023/09/27 01:46:40;;;;;;;9.20;6.30;;;;;;;11.10;98.01;98144.38;110179;1241;59703;-61
2023/09/27 01:49:16;;;;;;;9.90;6.80;;;;;;;11.07;95.67;98140.95;110153;1243;59651;-61
2023/09/27 01:51:54;;;;;;;9.10;6.90;;;;;;;11.04;91.54;98144.09;110123;1241;71464;-60
2023/09/27 01:54:26;;;;;;;6.80;5.60;;;;;;;11.01;90.14;98143.60;110196;1242;69678;-62
2023/09/27 01:56:56;;;;;;;8.30;6.50;;;;;;;10.99;93.34;98143.73;110128;1242;69622;-62
2023/09/27 01:59:29;;;;;;;9.10;6.80;;;;;;;10.96;93.43;98143.38;110153;1241;60054;-62
2023/09/27 02:02:03;;;;;;;10.40;7.10;;;;;;;10.94;92.59;98143.27;110168;1241;59717;-61
2023/09/27 02:04:41;;;;;;;11.60;8.80;;;;;;;10.92;90.38;98136.27;110192;1242;71385;-61
2023/09/27 02:07:17;;;;;;;11.10;6.70;;;;;;;10.91;93.70;98135.33;110185;1243;68921;-61
2023/09/27 02:09:49;;;;;;;8.90;7.50;;;;;;;10.89;91.99;98136.45;110153;1243;68579;-61
2023/09/27 02:12:22;;;;;;;11.50;7.40;;;;;;;10.89;91.49;98132.98;110133;1243;59744;-61
2023/09/27 02:14:52;;;;;;;8.50;5.90;;;;;;;10.88;90.03;98133.41;110139;1241;59712;-61
2023/09/27 02:17:26;;;;;;;8.80;6.60;;;;;;;10.85;88.52;98134.98;110150;1243;71472;-61
2023/09/27 02:19:57;;;;;;;10.30;7.10;;;;;;;10.77;89.66;98134.44;110136;1241;69389;-61
2023/09/27 02:22:28;;;;;;;7.80;6.30;;;;;;;10.69;88.59;98133.15;110200;1243;68347;-61
2023/09/27 02:25:04;;;;;;;8.30;5.50;;;;;;;10.65;94.02;98136.39;110170;1247;59697;-62
2023/09/27 02:27:36;;;;;;;8.90;6.30;;;;;;;10.62;87.57;98138.99;110186;1241;59831;-61
2023/09/27 02:30:12;;;;;;;7.50;5.70;;;;;;;10.61;87.95;98137.34;110199;1244;71119;-62
2023/09/27 02:32:45;;;;;;;8.30;6.50;;;;;;;10.60;86.54;98134.95;110218;1244;69269;-61
2023/09/27 02:35:20;;;;;;;8.90;7.80;;;;;;;10.61;86.64;98135.96;110207;1243;68759;-61
2023/09/27 02:37:52;;;;;;;8.40;6.30;;;;;;;10.62;87.15;98133.45;110152;1244;60108;-62
2023/09/27 02:40:25;;;;;;;8.30;6.50;;;;;;;10.64;97.67;98135.60;110229;1243;59691;-62
2023/09/27 02:42:58;;;;;;;6.80;5.40;;;;;;;10.65;96.17;98139.02;110164;1241;71246;-62
2023/09/27 02:45:34;;;;;;;8.30;5.40;;;;;;;10.61;89.70;98137.33;110149;1244;69276;-62
2023/09/27 02:48:05;;;;;;;6.60;5.00;;;;;;;10.55;96.63;98140.68;110190;1244;68802;-62
2023/09/27 02:50:36;;;;;;;11.90;8.20;;;;;;;10.43;96.59;98142.43;110190;1241;59714;-62
2023/09/27 02:53:09;;;;;;;8.70;7.30;;;;;;;10.23;94.40;98141.87;110135;1241;60095;-62
2023/09/27 02:55:40;;;;;;;10.60;7.20;;;;;;;10.00;92.13;98142.73;110226;1243;70688;-61
2023/09/27 02:58:15;;;;;;;9.70;7.00;;;;;;;9.79;95.83;98141.50;110154;1243;69237;-61
2023/09/27 03:00:48;;;;;;;7.40;5.90;;;;;;;9.65;97.14;98145.60;110154;1241;69272;-61
2023/09/27 03:03:23;;;;;;;8.80;6.60;;;;;;;9.57;98.99;98143.66;110164;1247;59705;-61
2023/09/27 03:05:59;;;;;;;6.90;5.30;;;;;;;9.52;100.00;98147.77;110156;1244;59654;-61
2023/09/27 03:08:30;;;;;;;7.60;6.10;;;;;;;9.47;99.83;98145.10;110081;1243;71686;-61
2023/09/27 03:11:03;;;;;;;6.90;5.00;;;;;;;9.43;100.00;98144.45;110172;1244;69355;-61
2023/09/27 03:13:36;;;;;;;6.60;5.50;;;;;;;9.42;100.00;98145.00;109871;1244;68383;-61
2023/09/27 03:16:08;;;;;;;7.50;5.40;;;;;;;9.40;100.00;98141.46;110149;1242;59639;-61
2023/09/27 03:18:38;;;;;;;8.90;5.60;;;;;;;9.38;100.00;98141.27;110007;1244;59687;-62
2023/09/27 03:21:09;;;;;;;7.20;5.30;;;;;;;9.35;100.00;98137.39;109915;1244;71437;-61
2023/09/27 03:23:42;;;;;;;7.00;5.40;;;;;;;9.35;100.00;98133.80;110074;1245;69280;-61
2023/09/27 03:26:12;;;;;;;7.30;5.50;;;;;;;9.33;99.74;98134.23;110133;1244;69359;-62
2023/09/27 03:28:44;;;;;;;10.20;7.70;;;;;;;9.32;99.72;98137.96;109994;1244;59747;-61
2023/09/27 03:31:15;;;;;;;7.50;6.10;;;;;;;9.28;97.35;98136.77;110012;1244;59713;-61
2023/09/27 03:33:47;;;;;;;9.10;6.20;;;;;;;9.22;97.79;98135.05;110102;1241;71287;-61
2023/09/27 03:36:18;;;;;;;7.70;5.90;;;;;;;9.16;96.71;98134.83;110181;1244;69386;-61
2023/09/27 03:38:50;;;;;;;8.20;6.40;;;;;;;9.13;100.00;98133.05;110012;1244;68843;-61
2023/09/27 03:41:22;;;;;;;10.40;7.50;;;;;;;9.12;99.91;98132.23;110125;1244;59706;-62
2023/09/27 03:43:54;;;;;;;14.60;10.30;;;;;;;9.14;97.16;98130.60;110152;1241;59702;-62
2023/09/27 03:46:29;;;;;;;11.20;8.50;;;;;;;9.22;99.38;98131.68;110133;1241;69548;-62
2023/09/27 03:49:00;;;;;;;11.60;9.00;;;;;;;9.33;100.00;98136.13;109919;1241;69238;-61
2023/09/27 03:51:30;;;;;;;12.40;8.50;;;;;;;9.38;100.00;98137.42;109857;1244;69871;-63
2023/09/27 03:54:01;;;;;;;10.20;6.90;;;;;;;9.38;100.00;98136.58;110108;1242;59779;-61
2023/09/27 03:56:32;;;;;;;11.40;8.30;;;;;;;9.35;100.00;98133.40;110146;1241;59684;-61
2023/09/27 03:59:01;;;;;;;11.50;7.80;;;;;;;9.31;99.53;98132.92;110142;1244;70915;-61
2023/09/27 04:01:31;;;;;;;11.00;8.20;;;;;;;9.30;98.81;98132.12;110202;1244;68831;-62
2023/09/27 04:04:04;;;;;;;10.30;7.10;;;;;;;9.32;99.19;98132.37;110076;1241;68738;-62
2023/09/27 04:06:35;;;;;;;11.60;7.70;;;;;;;9.34;97.78;98135.40;110117;1244;59687;-62
2023/09/27 04:09:08;;;;;;;8.40;7.20;;;;;;;9.34;98.29;98134.15;110192;1245;59701;-62
2023/09/27 04:11:38;;;;;;;11.40;7.40;;;;;;;9.33;100.00;98136.84;110226;1242;70406;-62
2023/09/27 04:14:09;;;;;;;8.70;6.80;;;;;;;9.30;99.76;98135.94;110181;1241;68872;-62
2023/09/27 04:16:39;;;;;;;;;;;;;;;9.27;99.05;98135.63;110177;1242;70036;-63
2023/09/27 04:19:09;;;;;;;9.20;6.90;;;;;;;9.22;100.00;98142.85;110193;1242;59695;-62
2023/09/27 04:21:39;;;;;;;;;;;;;;;9.13;100.00;98146.09;110214;1241;59656;-62
2023/09/27 04:24:09;;;;;;;10.30;7.40;;;;;;;9.00;100.00;98151.85;110234;1243;71780;-61
2023/09/27 04:26:38;;;;;;;8.90;6.90;;;;;;;8.92;100.00;98150.73;110200;1242;69656;-63
2023/09/27 04:29:08;;;;;;;8.70;5.90;;;;;;;8.88;100.00;98150.45;110196;1242;69264;-62
2023/09/27 04:31:38;;;;;;;13.60;7.70;;;;;;;8.86;100.00;98158.88;110216;1243;59697;-62
2023/09/27 04:34:09;;;;;;;10.70;8.10;;;;;;;8.87;99.83;98154.66;110245;1242;59695;-60
2023/09/27 04:36:38;;;;;;;;;;;;;;;8.87;100.00;98153.27;110209;1242;70543;-60
2023/09/27 04:39:12;;;;;;;9.90;7.60;;;;;;;8.89;99.72;98157.52;110258;1241;70232;-62
2023/09/27 04:41:43;;;;;;;10.70;6.80;;;;;;;8.93;100.00;98153.15;110237;1242;69290;-62
2023/09/27 04:44:14;;;;;;;9.30;6.50;;;;;;;8.95;100.00;98154.08;110249;1242;59687;-61
2023/09/27 04:46:44;;;;;;;7.60;5.60;;;;;;;9.03;100.00;98152.09;110262;1242;59707;-61
2023/09/27 04:49:14;;;;;;;7.60;5.80;;;;;;;9.15;100.00;98154.88;110268;1240;71203;-62
2023/09/27 04:51:44;;;;;;;;;;;;;;;9.31;100.00;98154.32;110232;1242;69752;-63
2023/09/27 04:54:13;;;;;;;9.60;6.90;;;;;;;9.47;100.00;98154.30;110269;1241;68536;-61
2023/09/27 04:56:43;;;;;;;;;;;;;;;9.64;100.00;98154.91;110271;1243;60054;-61
2023/09/27 04:59:13;;;;;;;7.30;5.30;;;;;;;9.80;100.00;98159.40;110245;1242;60181;-61
2023/09/27 05:01:43;;;;;;;;;;;;;;;10.00;100.00;98157.38;110235;1242;71403;-62
2023/09/27 05:04:12;;;;;;;9.40;6.90;;;;;;;10.14;100.00;98157.71;110186;1243;69155;-62
2023/09/27 05:06:42;;;;;;;9.70;7.30;;;;;;;10.36;100.00;98164.67;110164;1242;69873;-62
2023/09/27 05:09:11;;;;;;;8.70;7.30;;;;;;;10.60;100.00;98163.70;110111;1251;59710;-61
2023/09/27 05:11:41;;;;;;;8.10;6.60;;;;;;;10.79;100.00;98156.64;110158;1244;59733;-61
2023/09/27 05:14:12;;;;;;;9.00;6.80;;;;;;;11.00;100.00;98158.63;110190;1244;70459;-60
2023/09/27 05:16:42;;;;;;;9.50;7.40;;;;;;;11.33;100.00;98156.75;110168;1244;69246;-61
2023/09/27 05:19:12;;;;;;;8.60;7.50;;;;;;;11.62;99.94;98159.91;110155;1241;69877;-61
2023/09/27 05:21:43;;;;;;;;;;;;;;;11.88;98.41;98164.91;110178;1243;60138;-60
2023/09/27 05:24:13;;;;;;;9.50;6.80;;;;;;;12.06;97.40;98164.88;110136;1244;59730;-61
2023/09/27 05:26:42;;;;;;;8.80;6.60;;;;;;;12.25;95.76;98162.91;110126;1241;70382;-61
2023/09/27 05:29:15;;;;;;;7.40;6.50;;;;;;;12.46;95.98;98169.19;110163;1244;68507;-61
2023/09/27 05:31:45;;;;;;;8.30;6.90;;;;;;;12.80;95.20;98168.89;110121;1241;68521;-60
2023/09/27 05:34:15;;;;;;;10.70;7.00;;;;;;;13.02;91.01;98167.88;110106;1242;59670;-62
2023/09/27 05:36:46;;;;;;;8.30;6.90;;;;;;;13.23;89.51;98168.70;110157;1244;59681;-62
2023/09/27 05:39:16;;;;;;;9.10;7.10;;;;;;;13.37;87.29;98168.40;110136;1244;71396;-60
2023/09/27 05:41:46;;;;;;;9.60;7.00;;;;;;;13.52;86.60;98169.98;110135;1243;69042;-60
2023/09/27 05:44:16;;;;;;;9.30;7.30;;;;;;;13.68;85.87;98173.28;110115;1241;69271;-59
2023/09/27 05:46:47;;;;;;;9.30;6.90;;;;;;;13.87;84.82;98174.39;110121;1244;59685;-60
2023/09/27 05:49:18;;;;;;;7.60;6.10;;;;;;;14.14;83.79;98176.21;110159;1243;59722;-61
2023/09/27 05:51:48;;;;;;;9.40;6.70;;;;;;;14.39;81.76;98183.96;110162;1244;71357;-62
2023/09/27 05:54:19;;;;;;;9.30;7.70;;;;;;;14.61;81.90;98181.80;110139;1244;69285;-60
2023/09/27 05:56:51;;;;;;;9.30;6.70;;;;;;;14.83;82.42;98175.38;110115;1241;69334;-60
2023/09/27 05:59:24;;;;;;;9.50;6.50;;;;;;;15.02;80.48;98172.10;110162;1243;59683;-61
2023/09/27 06:01:53;;;;;;;9.10;6.50;;;;;;;15.52;84.52;98172.73;110164;1244;59749;-60
2023/09/27 06:04:24;;;;;;;7.70;6.10;;;;;;;15.81;77.61;98174.02;110112;1241;71541;-61
2023/09/27 06:06:54;;;;;;;7.60;6.10;;;;;;;16.15;78.65;98177.02;110176;1241;69247;-61
2023/09/27 06:09:24;;;;;;;9.00;6.00;;;;;;;16.48;79.97;98179.36;110117;1244;69269;-61
2023/09/27 06:11:54;;;;;;;9.90;6.00;;;;;;;16.82;78.89;98180.86;110122;1243;59776;-61
2023/09/27 06:14:25;;;;;;;9.00;5.90;;;;;;;16.94;72.55;98182.15;110141;1241;59691;-61
2023/09/27 06:16:55;;;;;;;8.10;5.70;;;;;;;17.14;69.43;98174.88;110123;1244;71805;-61
2023/09/27 06:19:27;;;;;;;9.00;6.40;;;;;;;17.23;68.00;98178.98;110144;1242;68567;-61
2023/09/27 06:21:58;;;;;;;;;;;;;;;17.54;70.96;98180.88;110127;1241;68697;-61
2023/09/27 06:24:27;;;;;;;7.90;6.50;;;;;;;17.79;71.33;98182.05;110150;1241;59745;-61
2023/09/27 06:26:58;;;;;;;;;;;;;;;17.90;68.58;98181.33;110132;1244;59722;-61
2023/09/27 06:29:27;;;;;;;8.70;6.20;;;;;;;18.06;65.42;98183.14;110147;1244;70608;-61
2023/09/27 06:31:57;;;;;;;8.30;6.90;;;;;;;18.10;64.25;98181.30;110134;1244;69114;-61
2023/09/27 06:34:27;;;;;;;9.10;6.60;;;;;;;17.93;63.10;98180.98;110096;1241;69797;-61
2023/09/27 06:36:56;;;;;;;;;;;;;;;17.99;64.12;98182.16;110135;1242;59774;-62
2023/09/27 06:39:27;;;;;;;;;;;;;;;18.27;62.97;98180.45;110101;1242;59660;-61
2023/09/27 06:41:56;;;;;;;10.20;7.40;;;;;;;18.62;63.68;98177.92;110149;1241;71982;-61
2023/09/27 06:44:26;;;;;;;8.30;6.30;;;;;;;18.87;63.18;98178.77;110139;1243;69927;-62
2023/09/27 06:46:56;;;;;;;7.60;6.40;;;;;;;19.11;63.10;98174.21;110127;1243;69252;-62
2023/09/27 06:49:25;;;;;;;8.00;7.00;;;;;;;19.44;61.84;98178.09;110141;1243;59678;-62
2023/09/27 06:51:55;;;;;;;10.10;6.40;;;;;;;19.80;61.83;98176.02;110124;1243;59695;-62
2023/09/27 06:54:25;;;;;;;10.60;7.30;;;;;;;20.14;61.50;98180.39;110144;1242;71406;-62
2023/09/27 06:56:55;;;;;;;9.40;7.60;;;;;;;20.33;58.32;98176.73;110136;1241;69251;-60
2023/09/27 06:59:26;;;;;;;11.50;7.70;;;;;;;20.32;58.82;98175.73;110148;1244;69297;-60
2023/09/27 07:01:55;;;;;;;10.90;6.80;;;;;;;20.28;58.30;98178.32;110135;1243;59761;-60
2023/09/27 07:04:25;;;;;;;16.10;7.90;;;;;;;20.44;58.06;98177.56;110133;1244;59646;-63
2023/09/27 07:06:54;;;;;;;12.20;7.00;;;;;;;20.61;57.28;98177.81;110143;1241;71968;-63
2023/09/27 07:09:25;;;;;;;10.20;6.30;;;;;;;21.08;56.24;98177.57;110182;1243;69688;-63
2023/09/27 07:11:55;;;;;;;6.80;5.50;;;;;;;21.50;55.50;98177.23;110156;1243;70222;-62
2023/09/27 07:14:24;;;;;;;9.70;6.00;;;;;;;21.97;53.66;98179.49;110182;1242;59764;-61
2023/09/27 07:16:54;;;;;;;11.70;5.80;;;;;;;22.16;52.36;98180.46;110202;1244;60151;-61
2023/09/27 07:19:31;;;;;;;7.20;6.30;;;;;;;22.39;51.58;98181.35;110189;1243;70721;-61
2023/09/27 07:22:01;;;;;;;10.70;6.70;;;;;;;22.84;52.73;98183.56;110137;1244;69093;-61
2023/09/27 07:24:31;;;;;;;9.00;6.40;;;;;;;22.84;51.21;98184.77;110063;1242;69903;-61
2023/09/27 07:27:00;;;;;;;10.80;7.10;;;;;;;23.06;49.82;98186.38;110115;1242;59774;-61
2023/09/27 07:29:30;;;;;;;6.80;5.60;;;;;;;23.09;48.80;98184.20;110148;1241;59976;-61
2023/09/27 07:31:59;;;;;;;7.10;5.00;;;;;;;23.29;47.94;98180.77;110140;1244;71493;-61
2023/09/27 07:34:29;;;;;;;9.00;5.90;;;;;;;23.88;47.58;98178.92;110138;1244;69259;-62
2023/09/27 07:36:58;;;;;;;7.10;5.90;;;;;;;24.20;46.61;98181.52;110170;1244;69448;-61
2023/09/27 07:39:27;;;;;;;8.20;6.20;;;;;;;24.52;45.54;98179.45;110149;1241;59770;-61
2023/09/27 07:41:57;;;;;;;7.50;5.20;;;;;;;24.67;43.58;98179.40;110148;1243;59702;-61
2023/09/27 07:44:28;;;;;;;9.30;5.80;;;;;;;24.73;41.60;98181.04;110142;1241;71892;-61
2023/09/27 07:46:59;;;;;;;9.60;5.40;;;;;;;24.61;41.80;98176.02;110169;1243;69355;-60
2023/09/27 07:49:30;;;;;;;8.00;5.60;;;;;;;24.94;40.69;98178.69;110151;1241;68332;-61
2023/09/27 07:51:59;;;;;;;8.10;5.60;;;;;;;25.32;39.17;98173.34;110085;1244;59715;-63
2023/09/27 07:54:28;;;;;;;;;;;;;;;25.52;39.56;98173.07;110129;1241;59689;-61
2023/09/27 07:56:59;;;;;;;8.50;5.60;;;;;;;25.84;39.26;98173.95;110152;1243;71308;-61
2023/09/27 07:59:29;;;;;;;10.60;6.10;;;;;;;25.76;38.30;98178.31;110132;1243;69277;-61
2023/09/27 08:01:58;;;;;;;6.90;5.50;;;;;;;26.30;38.26;98176.98;110123;1244;69734;-62
2023/09/27 08:04:28;;;;;;;8.50;5.90;;;;;;;26.44;37.94;98177.05;110131;1244;59658;-61
2023/09/27 08:06:58;;;;;;;6.20;5.10;;;;;;;26.83;37.25;98173.00;110129;1241;59681;-61
2023/09/27 08:09:27;;;;;;;6.40;4.80;;;;;;;27.69;37.19;98165.77;110142;1241;72378;-62
2023/09/27 08:12:03;;;;;;;8.20;5.40;;;;;;;28.30;36.31;98162.34;110155;1244;69210;-62
2023/09/27 08:14:36;;;;;;;5.70;4.50;;;;;;;28.64;33.97;98159.02;110133;1244;68444;-61
2023/09/27 08:17:06;;;;;;;7.90;4.40;;;;;;;28.57;34.21;98155.52;110122;1242;59761;-61
2023/09/27 08:19:38;;;;;;;5.80;4.40;;;;;;;29.43;35.05;98161.36;110109;1244;59694;-61
2023/09/27 08:22:09;;;;;;;6.50;4.40;;;;;;;29.94;34.49;98153.32;110160;1244;72078;-61
2023/09/27 08:24:38;;;;;;;7.40;4.70;;;;;;;30.07;29.82;98147.85;110113;1244;69824;-61
2023/09/27 08:27:08;;;;;;;4.50;4.00;;;;;;;30.16;30.44;98150.73;110119;1241;69662;-61
2023/09/27 08:29:38;;;;;;;5.70;4.70;;;;;;;29.87;30.58;98146.19;110131;1242;59723;-61
2023/09/27 08:32:08;;;;;;;4.60;4.10;;;;;;;29.80;30.67;98148.92;110131;1244;59728;-61
2023/09/27 08:34:37;;;;;;;4.90;4.10;;;;;;;29.88;30.62;98145.36;110099;1244;71914;-61
2023/09/27 08:37:11;;;;;;;6.60;4.40;;;;;;;30.48;29.50;98144.21;110101;1244;69289;-61
2023/09/27 08:39:42;;;;;;;5.00;4.30;;;;;;;30.60;29.76;98143.21;110132;1243;69363;-61
2023/09/27 08:42:11;;;;;;;5.50;4.30;;;;;;;30.69;29.40;98139.25;110148;1241;59764;-62
2023/09/27 08:44:41;;;;;;;5.00;4.00;;;;;;;31.11;29.21;98142.04;110159;1243;59683;-60
2023/09/27 08:47:11;;;;;;;6.40;4.30;;;;;;;31.73;28.88;98138.23;110124;1243;71947;-60
2023/09/27 08:49:41;;;;;;;4.50;3.60;;;;;;;31.98;27.65;98133.69;110104;1243;68656;-61
2023/09/27 08:52:11;;;;;;;5.80;4.10;;;;;;;32.07;27.36;98133.02;110151;1243;69867;-62
2023/09/27 08:54:41;;;;;;;5.20;4.00;;;;;;;32.16;26.45;98129.52;110116;1244;59743;-62
2023/09/27 08:57:12;;;;;;;4.90;4.00;;;;;;;32.33;26.21;98126.75;110158;1243;59638;-62
2023/09/27 08:59:41;;;;;;;4.90;3.80;;;;;;;32.21;25.56;98120.52;110124;1244;72007;-62
2023/09/27 09:02:13;;;;;;;5.30;4.10;;;;;;;32.62;25.54;98121.91;110194;1244;69659;-61
2023/09/27 09:04:43;;;;;;;4.80;3.50;;;;;;;32.90;24.94;98115.99;110147;1241;69206;-61
2023/09/27 09:07:12;;;;;;;5.70;3.80;;;;;;;33.27;25.10;98117.88;109670;1241;604086;-60
2023/09/27 09:09:41;;;;;;;5.00;3.60;;;;;;;33.56;24.77;98111.77;110212;1243;59744;-62
2023/09/27 09:12:12;;;;;;;5.50;3.50;;;;;;;33.90;24.35;98110.14;110192;1244;71336;-62
2023/09/27 09:14:54;;;;;;;5.70;3.50;;;;;;;34.33;25.03;98111.63;110153;1243;69171;-60
2023/09/27 09:17:34;;;;;;;4.40;3.60;;;;;;;34.75;24.14;98105.00;110212;1243;68564;-63
2023/09/27 09:20:15;;;;;;;6.30;3.70;;;;;;;34.85;23.31;98107.16;110152;1244;59681;-62
2023/09/27 09:22:46;;;;;;;5.10;4.20;;;;;;;34.25;23.63;98105.52;110167;1243;60156;-62
2023/09/27 09:25:15;;;;;;;5.90;3.90;;;;;;;33.85;23.52;98100.16;110191;1245;71340;-62
2023/09/27 09:27:44;;;;;;;5.90;4.10;;;;;;;33.89;23.86;98102.96;110169;1243;69862;-61
2023/09/27 09:30:13;;;;;;;5.10;3.90;;;;;;;34.13;23.55;98101.50;110182;1243;69247;-62
2023/09/27 09:32:50;;;;;;;4.90;3.70;;;;;;;33.49;24.14;98096.99;110161;1242;59679;-61
2023/09/27 09:35:32;;;;;;;4.20;3.60;;;;;;;33.51;24.43;98096.62;110158;1243;59732;-61
2023/09/27 09:38:03;;;;;;;4.60;3.60;;;;;;;34.55;23.95;98091.14;110181;1241;71997;-61
2023/09/27 09:40:34;;;;;;;5.00;3.60;;;;;;;34.03;24.33;98086.66;110177;1243;69826;-61
2023/09/27 09:43:03;;;;;;;5.90;4.00;;;;;;;34.36;23.48;98084.49;110149;1243;69268;-61
2023/09/27 09:45:43;;;;;;;5.70;3.40;;;;;;;33.77;23.75;98081.29;110141;1243;59681;-61
2023/09/27 09:48:13;;;;;;;6.60;3.80;;;;;;;34.33;23.64;98081.02;110144;1242;59681;-61
2023/09/27 09:50:43;;;;;;;4.20;3.20;;;;;;;35.14;22.70;98084.66;110156;1243;72111;-61
2023/09/27 09:53:14;;;;;;;4.80;3.80;;;;;;;34.59;22.41;98080.50;110132;1244;69848;-61
2023/09/27 09:55:49;;;;;;;4.80;3.70;;;;;;;33.97;23.41;98078.61;110119;1244;69271;-61
2023/09/27 09:58:50;;;;;;;5.00;3.90;;;;;;;33.96;24.33;98074.79;110104;1244;59751;-60
2023/09/27 10:01:26;;;;;;;5.40;3.60;;;;;;;34.48;23.63;98070.62;110162;1241;60142;-61
2023/09/27 10:03:58;;;;;;;3.90;3.30;;;;;;;35.67;23.10;98064.93;110107;1242;72021;-61
2023/09/27 10:06:27;;;;;;;4.00;3.10;;;;;;;35.72;21.37;98063.90;110149;1243;69685;-62
2023/09/27 10:09:17;;;;;;;4.90;3.10;;;;;;;36.23;22.17;98064.44;110106;1241;69724;-62
2023/09/27 10:11:47;;;;;;;4.20;3.50;;;;;;;36.54;22.01;98062.13;110137;1243;59793;-61
2023/09/27 10:14:19;;;;;;;6.00;3.70;;;;;;;36.35;22.12;98055.39;110107;1242;59698;-61
2023/09/27 10:16:50;;;;;;;4.90;3.70;;;;;;;36.59;21.82;98052.10;110128;1241;72118;-61
2023/09/27 10:19:29;;;;;;;8.40;3.50;;;;;;;36.73;21.05;98053.29;110140;1244;69839;-60
2023/09/27 10:22:07;;;;;;;5.30;3.40;;;;;;;36.43;20.73;98049.45;110101;1243;69278;-61
2023/09/27 10:24:42;;;;;;;4.20;2.90;;;;;;;35.65;21.00;98047.63;110151;1244;59683;-60
2023/09/27 10:27:11;;;;;;;4.00;3.50;;;;;;;35.36;21.14;98046.94;110134;1245;59670;-61
2023/09/27 10:30:00;;;;;;;6.90;4.10;;;;;;;35.30;21.05;98040.73;110116;1244;71327;-60
2023/09/27 10:32:30;;;;;;;5.30;3.60;;;;;;;35.73;21.16;98039.11;110167;1241;69807;-60
2023/09/27 10:35:16;;;;;;;5.90;3.80;;;;;;;35.71;21.44;98037.50;110145;1244;69039;-61
2023/09/27 10:37:59;;;;;;;3.60;3.30;;;;;;;36.25;20.80;98031.26;110170;1242;59735;-61
2023/09/27 10:40:41;;;;;;;7.00;4.10;;;;;;;36.19;21.08;98035.29;110136;1244;59743;-61
2023/09/27 10:43:30;;;;;;;4.50;3.30;;;;;;;36.51;20.50;98033.77;110120;1241;71867;-61
2023/09/27 10:46:04;;;;;;;4.70;3.20;;;;;;;36.60;20.57;98025.44;110153;1243;69210;-61
2023/09/27 10:48:34;;;;;;;6.40;4.60;;;;;;;36.79;20.23;98025.75;110126;1244;69889;-60
2023/09/27 10:51:04;;;;;;;5.30;3.50;;;;;;;35.87;20.44;98023.39;110089;1243;60223;-61
2023/09/27 10:53:34;;;;;;;4.50;3.70;;;;;;;34.25;21.53;98024.40;110139;1246;59713;-61
2023/09/27 10:56:04;;;;;;;5.30;3.30;;;;;;;34.90;21.94;98021.77;110144;1242;72012;-61
2023/09/27 10:58:43;;;;;;;4.90;4.00;;;;;;;35.41;21.10;98013.77;110127;1244;69312;-61
2023/09/27 11:01:19;;;;;;;5.60;3.10;;;;;;;36.05;20.47;98011.52;110100;1243;69101;-61
2023/09/27 11:04:02;;;;;;;4.90;3.30;;;;;;;35.32;20.81;98008.48;110129;1243;60146;-61
2023/09/27 11:06:32;;;;;;;5.90;3.50;;;;;;;35.59;20.55;98002.84;110132;1244;59715;-61
2023/09/27 11:09:06;;;;;;;6.90;4.00;;;;;;;36.39;20.36;98002.49;110159;1241;71934;-61
2023/09/27 11:11:35;;;;;;;5.10;3.30;;;;;;;36.72;20.44;98000.66;110094;1242;69390;-61
2023/09/27 11:14:05;;;;;;;6.00;4.20;;;;;;;36.36;19.80;97996.85;110124;1243;69861;-61
2023/09/27 11:16:34;;;;;;;6.60;4.10;;;;;;;36.65;20.08;97999.84;110117;1241;59636;-61
2023/09/27 11:19:04;;;;;;;4.50;3.50;;;;;;;37.03;20.31;97995.33;110123;1244;59754;-61
2023/09/27 11:21:33;;;;;;;7.30;4.40;;;;;;;37.50;19.92;97995.51;110154;1244;71977;-60
2023/09/27 11:24:03;;;;;;;7.10;4.50;;;;;;;37.47;19.08;97994.67;110114;1243;69822;-61
2023/09/27 11:26:33;;;;;;;7.60;4.80;;;;;;;36.21;19.96;97986.66;110155;1242;69884;-60
2023/09/27 11:29:09;;;;;;;6.00;4.10;;;;;;;36.02;20.03;97986.80;110099;1242;59698;-61
2023/09/27 11:31:39;;;;;;;5.30;3.90;;;;;;;35.66;20.66;97983.69;110144;1243;59631;-60
2023/09/27 11:34:19;;;;;;;6.20;4.20;;;;;;;35.39;20.85;97981.68;110150;1241;72326;-61
2023/09/27 11:36:55;;;;;;;7.30;4.30;;;;;;;35.67;20.72;97982.52;110134;1243;69670;-61
2023/09/27 11:39:29;;;;;;;5.30;4.10;;;;;;;35.78;20.71;97982.09;110111;1243;69909;-62
2023/09/27 11:41:59;;;;;;;7.90;4.20;;;;;;;35.58;20.80;97977.73;110125;1244;59687;-60
2023/09/27 11:44:29;;;;;;;5.70;3.90;;;;;;;35.32;20.90;97976.84;110104;1243;59685;-60
2023/09/27 11:47:08;;;;;;;6.00;4.00;;;;;;;35.10;21.29;97978.35;110165;1243;71412;-60
2023/09/27 11:49:38;;;;;;;6.80;3.80;;;;;;;35.50;20.65;97977.51;110121;1243;68607;-60